createdAt,value
2019-04-23T00:04:08.459Z,14.40
2019-04-23T00:06:42.946Z,14.40
2019-04-23T00:11:40.989Z,14.40
2019-04-23T00:18:49.470Z,14.30
2019-04-23T00:21:33.101Z,14.10
2019-04-23T00:24:13.913Z,14.10
2019-04-23T00:26:35.474Z,14.10
2019-04-23T00:28:58.874Z,14.10
2019-04-23T00:31:24.029Z,14.00
2019-04-23T00:33:49.612Z,14.00
2019-04-23T00:36:25.874Z,14.00
2019-04-23T00:41:20.816Z,14.00
2019-04-23T00:43:50.961Z,14.00
2019-04-23T00:46:15.410Z,14.00
2019-04-23T00:51:09.159Z,14.10
2019-04-23T00:53:32.662Z,14.10
2019-04-23T00:56:29.987Z,14.10
2019-04-23T01:01:04.151Z,13.90
2019-04-23T01:03:25.689Z,13.90
2019-04-23T01:06:00.615Z,13.90
2019-04-23T01:08:29.692Z,13.90
2019-04-23T01:11:08.247Z,13.60
2019-04-23T01:15:56.336Z,13.60
2019-04-23T01:18:50.514Z,13.60
2019-04-23T01:20:52.979Z,13.60
2019-04-23T01:23:05.398Z,13.60
2019-04-23T01:25:45.156Z,13.60
2019-04-23T01:28:26.642Z,13.60
2019-04-23T01:30:57.006Z,13.60
2019-04-23T01:33:28.781Z,13.60
2019-04-23T01:36:07.812Z,13.60
2019-04-23T01:38:18.460Z,13.60
2019-04-23T01:41:01.276Z,13.60
2019-04-23T01:43:16.250Z,13.50
2019-04-23T01:45:34.322Z,13.30
2019-04-23T01:48:05.217Z,13.20
2019-04-23T01:50:47.324Z,13.20
2019-04-23T01:53:14.879Z,13.20
2019-04-23T01:55:51.404Z,13.10
2019-04-23T01:58:23.749Z,13.00
2019-04-23T02:00:39.174Z,13.00
2019-04-23T02:03:10.972Z,13.00
2019-04-23T02:08:03.982Z,13.10
2019-04-23T02:13:03.815Z,13.00
2019-04-23T02:15:33.170Z,13.00
2019-04-23T02:18:02.160Z,13.00
2019-04-23T02:20:30.865Z,13.00
2019-04-23T02:25:34.921Z,12.90
2019-04-23T02:28:01.870Z,12.90
2019-04-23T02:33:10.724Z,13.00
2019-04-23T02:35:36.701Z,12.90
2019-04-23T02:40:26.337Z,12.80
2019-04-23T02:45:16.116Z,12.80
2019-04-23T02:47:55.467Z,12.70
2019-04-23T02:50:34.551Z,12.80
2019-04-23T02:52:37.275Z,12.70
2019-04-23T02:55:15.554Z,12.80
2019-04-23T02:57:37.020Z,12.70
2019-04-23T03:10:03.252Z,12.70
2019-04-23T03:15:00.920Z,12.60
2019-04-23T03:23:05.577Z,12.60
2019-04-23T03:34:19.602Z,12.20
2019-04-23T03:36:14.136Z,12.20
2019-04-23T03:37:48.952Z,12.20
2019-04-23T03:40:11.642Z,12.30
2019-04-23T03:42:42.754Z,12.30
2019-04-23T03:47:38.561Z,12.20
2019-04-23T03:52:34.313Z,12.10
2019-04-23T03:55:05.751Z,11.90
2019-04-23T04:00:08.215Z,11.90
2019-04-23T04:02:54.836Z,12.20
2019-04-23T04:04:49.890Z,12.10
2019-04-23T04:09:51.821Z,12.00
2019-04-23T04:12:30.031Z,12.00
2019-04-23T04:15:13.177Z,12.00
2019-04-23T04:27:12.415Z,12.00
2019-04-23T04:29:54.984Z,12.00
2019-04-23T04:37:35.627Z,12.10
2019-04-23T04:39:33.633Z,12.00
2019-04-23T04:46:59.799Z,12.00
2019-04-23T04:52:11.749Z,12.10
2019-04-23T04:54:21.490Z,12.10
2019-04-23T04:56:56.547Z,12.20
2019-04-23T04:59:13.993Z,12.20
2019-04-23T05:01:48.316Z,12.20
2019-04-23T05:04:24.741Z,12.20
2019-04-23T05:06:56.865Z,12.00
2019-04-23T05:11:46.104Z,11.80
2019-04-23T05:14:08.451Z,12.00
2019-04-23T05:16:35.573Z,12.00
2019-04-23T05:19:12.598Z,12.10
2019-04-23T05:21:46.653Z,12.10
2019-04-23T05:24:00.957Z,12.30
2019-04-23T05:29:05.836Z,12.20
2019-04-23T05:31:23.156Z,12.10
2019-04-23T05:34:01.506Z,12.40
2019-04-23T05:41:21.946Z,12.30
2019-04-23T05:43:46.405Z,12.20
2019-04-23T05:46:21.244Z,12.10
2019-04-23T05:48:49.029Z,12.20
2019-04-23T05:53:39.691Z,12.30
2019-04-23T05:56:06.523Z,12.30
2019-04-23T05:58:40.023Z,12.30
2019-04-23T06:01:34.627Z,12.40
2019-04-23T06:03:38.453Z,12.40
2019-04-23T06:06:12.639Z,12.30
2019-04-23T06:08:38.569Z,12.50
2019-04-23T06:11:09.767Z,12.50
2019-04-23T06:13:35.911Z,12.80
2019-04-23T06:15:58.143Z,13.00
2019-04-23T06:18:36.831Z,13.00
2019-04-23T06:23:36.575Z,13.20
2019-04-23T06:26:08.061Z,13.10
2019-04-23T06:28:22.335Z,13.10
2019-04-23T06:31:02.277Z,13.10
2019-04-23T06:33:21.135Z,13.10
2019-04-23T06:35:53.366Z,13.00
2019-04-23T06:45:41.689Z,13.60
2019-04-23T06:48:18.379Z,13.80
2019-04-23T06:50:41.497Z,14.20
2019-04-23T06:53:02.131Z,14.20
2019-04-23T06:55:37.403Z,14.60
2019-04-23T06:58:08.686Z,14.60
2019-04-23T07:00:38.048Z,15.00
2019-04-23T07:02:59.695Z,15.00
2019-04-23T07:05:34.780Z,15.00
2019-04-23T07:08:00.890Z,15.20
2019-04-23T07:10:25.239Z,15.30
2019-04-23T07:12:57.680Z,15.60
2019-04-23T07:15:38.030Z,15.80
2019-04-23T07:18:03.853Z,15.90
2019-04-23T07:20:30.344Z,16.00
2019-04-23T07:22:59.595Z,15.90
2019-04-23T07:25:29.496Z,16.00
2019-04-23T07:27:56.920Z,16.50
2019-04-23T07:30:23.723Z,16.40
2019-04-23T07:32:49.586Z,16.50
2019-04-23T07:37:51.704Z,16.70
2019-04-23T07:40:27.104Z,16.60
2019-04-23T07:43:03.184Z,16.60
2019-04-23T07:45:45.495Z,16.90
2019-04-23T07:48:16.634Z,17.30
2019-04-23T07:50:46.236Z,17.80
2019-04-23T07:53:19.685Z,17.70
2019-04-23T07:58:14.247Z,17.70
2019-04-23T08:00:41.408Z,17.90
2019-04-23T08:03:10.687Z,17.90
2019-04-23T08:05:37.717Z,18.00
2019-04-23T08:08:00.293Z,18.30
2019-04-23T08:10:27.827Z,18.40
2019-04-23T08:13:00.363Z,18.40
2019-04-23T08:15:28.323Z,18.50
2019-04-23T08:17:56.178Z,19.10
2019-04-23T08:20:22.979Z,19.60
2019-04-23T08:22:45.483Z,19.50
2019-04-23T08:25:44.835Z,19.70
2019-04-23T08:28:07.995Z,19.70
2019-04-23T08:30:33.358Z,19.40
2019-04-23T08:33:04.620Z,18.90
2019-04-23T08:35:29.988Z,18.90
2019-04-23T08:43:02.071Z,18.50
2019-04-23T08:45:21.755Z,18.80
2019-04-23T08:47:52.599Z,18.80
2019-04-23T08:50:24.780Z,19.00
2019-04-23T08:52:52.093Z,19.30
2019-04-23T08:55:14.473Z,18.90
2019-04-23T08:57:37.612Z,18.90
2019-04-23T09:00:17.859Z,19.10
2019-04-23T09:02:40.272Z,19.10
2019-04-23T09:05:19.332Z,19.50
2019-04-23T09:07:35.891Z,19.50
2019-04-23T09:12:36.713Z,19.30
2019-04-23T09:15:07.682Z,19.60
2019-04-23T09:17:34.796Z,19.70
2019-04-23T09:20:13.367Z,19.30
2019-04-23T09:22:32.609Z,19.30
2019-04-23T09:25:02.632Z,19.60
2019-04-23T09:27:28.921Z,19.60
2019-04-23T09:37:54.225Z,20.40
2019-04-23T09:40:25.280Z,20.40
2019-04-23T09:43:05.831Z,20.20
2019-04-23T09:45:28.255Z,20.30
2019-04-23T09:47:57.357Z,20.50
2019-04-23T09:53:06.319Z,20.60
2019-04-23T09:55:27.533Z,20.90
2019-04-23T09:57:48.552Z,20.90
2019-04-23T10:00:25.007Z,20.80
2019-04-23T10:02:33.949Z,20.70
2019-04-23T10:04:59.812Z,20.90
2019-04-23T10:07:27.063Z,21.30
2019-04-23T10:09:42.523Z,21.30
2019-04-23T10:12:11.458Z,21.30
2019-04-23T10:14:38.638Z,21.20
2019-04-23T10:17:06.435Z,21.50
2019-04-23T10:19:35.067Z,21.70
2019-04-23T10:22:02.024Z,21.60
2019-04-23T10:24:31.011Z,21.80
2019-04-23T10:26:58.115Z,21.60
2019-04-23T10:29:27.703Z,22.00
2019-04-23T10:31:55.553Z,22.20
2019-04-23T10:34:23.354Z,22.10
2019-04-23T10:36:51.603Z,22.20
2019-04-23T10:39:23.991Z,22.20
2019-04-23T10:41:48.834Z,22.90
2019-04-23T10:44:26.830Z,22.90
2019-04-23T10:47:23.459Z,23.10
2019-04-23T10:52:37.639Z,23.00
2019-04-23T10:54:50.837Z,22.90
2019-04-23T11:02:32.838Z,24.00
2019-04-23T11:07:27.082Z,22.50
2019-04-23T11:12:28.833Z,21.70
2019-04-23T11:17:16.440Z,21.40
2019-04-23T11:22:30.200Z,21.50
2019-04-23T11:27:07.910Z,21.20
2019-04-23T11:32:05.984Z,21.50
2019-04-23T11:34:48.060Z,21.50
2019-04-23T11:37:12.370Z,21.50
2019-04-23T11:39:32.707Z,21.20
2019-04-23T11:41:58.258Z,21.20
2019-04-23T11:44:27.907Z,21.00
2019-04-23T11:49:34.873Z,21.00
2019-04-23T11:54:17.710Z,20.80
2019-04-23T11:59:22.924Z,20.80
2019-04-23T12:04:45.309Z,20.70
2019-04-23T12:12:33.247Z,21.00
2019-04-23T12:15:07.411Z,21.10
2019-04-23T12:17:37.869Z,21.00
2019-04-23T12:20:16.218Z,21.00
2019-04-23T12:30:08.355Z,20.90
2019-04-23T12:35:03.759Z,20.90
2019-04-23T12:37:24.542Z,20.80
2019-04-23T12:39:54.697Z,20.70
2019-04-23T12:42:38.288Z,20.70
2019-04-23T12:44:45.870Z,20.60
2019-04-23T12:47:27.503Z,20.70
2019-04-23T12:52:11.415Z,21.30
2019-04-23T12:54:53.870Z,21.60
2019-04-23T12:59:36.430Z,21.80
2019-04-23T13:02:03.508Z,22.00
2019-04-23T13:04:38.095Z,21.90
2019-04-23T13:07:00.482Z,22.10
2019-04-23T13:09:41.784Z,22.00
2019-04-23T13:11:58.041Z,22.40
2019-04-23T13:14:25.170Z,22.60
2019-04-23T13:17:02.695Z,22.50
2019-04-23T13:19:33.935Z,22.60
2019-04-23T13:22:04.434Z,23.10
2019-04-23T13:27:23.839Z,22.70
2019-04-23T13:29:50.059Z,22.90
2019-04-23T13:32:09.635Z,23.40
2019-04-23T13:34:48.358Z,23.40
2019-04-23T13:37:20.222Z,23.60
2019-04-23T13:39:41.850Z,23.90
2019-04-23T13:42:19.766Z,23.80
2019-04-23T13:44:43.992Z,23.70
2019-04-23T13:47:10.621Z,23.80
2019-04-23T13:49:36.781Z,24.00
2019-04-23T13:52:14.242Z,23.60
2019-04-23T13:54:50.226Z,23.50
2019-04-23T13:59:44.455Z,23.20
2019-04-23T14:01:54.767Z,22.90
2019-04-23T14:04:48.427Z,22.70
2019-04-23T14:07:07.831Z,22.60
2019-04-23T14:09:50.851Z,22.40
2019-04-23T14:12:04.388Z,22.70
2019-04-23T14:19:26.150Z,22.70
2019-04-23T14:21:59.324Z,22.70
2019-04-23T14:26:50.661Z,22.40
2019-04-23T14:29:26.441Z,22.20
2019-04-23T14:31:47.441Z,21.90
2019-04-23T14:34:11.495Z,21.70
2019-04-23T14:36:43.178Z,21.80
2019-04-23T14:39:10.072Z,22.00
2019-04-23T14:41:57.743Z,22.30
2019-04-23T14:44:12.910Z,22.20
2019-04-23T14:49:03.551Z,22.50
2019-04-23T14:51:39.728Z,22.70
2019-04-23T14:54:23.415Z,22.70
2019-04-23T14:59:01.633Z,22.60
2019-04-23T15:01:35.712Z,22.50
2019-04-23T15:06:33.321Z,22.50
2019-04-23T15:08:58.940Z,22.60
2019-04-23T15:11:29.631Z,22.60
2019-04-23T15:13:50.093Z,22.50
2019-04-23T15:21:52.004Z,22.00
2019-04-23T15:24:03.871Z,22.00
2019-04-23T15:27:29.590Z,22.10
2019-04-23T15:28:37.299Z,22.20
2019-04-23T15:31:26.559Z,22.20
2019-04-23T15:34:00.974Z,21.80
2019-04-23T15:39:08.813Z,21.70
2019-04-23T15:41:25.478Z,21.70
2019-04-23T15:43:57.404Z,21.60
2019-04-23T15:48:54.288Z,21.50
2019-04-23T15:51:20.334Z,21.30
2019-04-23T15:53:42.346Z,21.30
2019-04-23T15:56:24.727Z,21.40
2019-04-23T15:58:48.438Z,21.40
2019-04-23T16:01:15.428Z,21.40
2019-04-23T16:03:13.564Z,21.30
2019-04-23T16:05:41.270Z,21.20
2019-04-23T16:08:50.012Z,21.20
2019-04-23T16:11:15.737Z,21.10
2019-04-23T16:13:37.087Z,20.90
2019-04-23T16:16:08.877Z,21.10
2019-04-23T16:18:49.864Z,21.00
2019-04-23T16:21:22.470Z,21.00
2019-04-23T16:23:43.837Z,20.90
2019-04-23T16:26:21.110Z,20.90
2019-04-23T16:29:00.291Z,20.80
2019-04-23T16:31:23.844Z,20.80
2019-04-23T16:33:40.733Z,20.60
2019-04-23T16:36:10.923Z,20.60
2019-04-23T16:41:09.551Z,20.60
2019-04-23T16:43:35.407Z,20.60
2019-04-23T16:46:08.100Z,20.60
2019-04-23T16:48:40.705Z,20.50
2019-04-23T16:53:24.112Z,20.50
2019-04-23T16:56:06.920Z,20.30
2019-04-23T17:03:28.970Z,20.20
2019-04-23T17:05:57.181Z,20.10
2019-04-23T17:10:51.194Z,19.70
2019-04-23T17:15:53.737Z,19.60
2019-04-23T17:18:17.365Z,19.60
2019-04-23T17:23:14.652Z,19.30
2019-04-23T17:28:12.539Z,19.30
2019-04-23T17:30:33.658Z,19.30
2019-04-23T17:33:13.889Z,19.10
2019-04-23T17:35:45.443Z,19.10
2019-04-23T17:38:10.747Z,19.00
2019-04-23T17:40:30.955Z,18.90
2019-04-23T17:43:04.979Z,18.80
2019-04-23T17:48:15.801Z,18.70
2019-04-23T17:53:21.623Z,18.40
2019-04-23T17:55:56.350Z,18.40
2019-04-23T17:58:17.725Z,18.40
2019-04-23T18:00:51.121Z,18.30
2019-04-23T18:03:11.093Z,18.30
2019-04-23T18:05:40.058Z,18.20
2019-04-23T18:08:05.497Z,18.20
2019-04-23T18:13:04.402Z,18.10
2019-04-23T18:15:27.520Z,18.00
2019-04-23T18:20:30.002Z,18.00
2019-04-23T18:25:30.913Z,17.80
2019-04-23T18:27:54.491Z,17.60
2019-04-23T18:30:28.803Z,17.60
2019-04-23T18:37:49.155Z,17.60
2019-04-23T18:40:10.381Z,17.60
2019-04-23T18:42:53.884Z,17.50
2019-04-23T18:45:25.135Z,17.40
2019-04-23T18:47:56.099Z,17.40
2019-04-23T18:50:59.404Z,17.30
2019-04-23T18:53:35.218Z,17.30
2019-04-23T18:56:04.122Z,17.30
2019-04-23T18:58:22.362Z,17.30
2019-04-23T19:03:21.843Z,17.10
2019-04-23T19:06:04.773Z,17.00
2019-04-23T19:08:32.078Z,17.00
2019-04-23T19:11:05.912Z,17.00
2019-04-23T19:13:39.849Z,17.00
2019-04-23T19:15:53.079Z,16.90
2019-04-23T19:18:29.670Z,16.90
2019-04-23T19:21:02.316Z,16.80
2019-04-23T19:25:46.750Z,16.60
2019-04-23T19:28:39.336Z,16.60
2019-04-23T19:30:53.580Z,16.50
2019-04-23T19:33:31.466Z,16.40
2019-04-23T19:36:05.070Z,16.40
2019-04-23T19:38:21.323Z,16.30
2019-04-23T19:40:51.753Z,16.20
2019-04-23T19:43:12.162Z,16.20
2019-04-23T19:45:49.727Z,16.10
2019-04-23T19:50:49.008Z,16.10
2019-04-23T19:55:47.419Z,16.00
2019-04-23T19:58:06.149Z,15.90
2019-04-23T20:00:51.146Z,15.80
2019-04-23T20:05:30.861Z,15.70
2019-04-23T20:07:55.407Z,15.80
2019-04-23T20:10:28.561Z,15.70
2019-04-23T20:12:45.978Z,15.70
2019-04-23T20:15:21.915Z,15.50
2019-04-23T20:20:18.232Z,15.50
2019-04-23T20:25:44.179Z,15.40
2019-04-23T20:33:35.010Z,15.30
2019-04-23T20:35:21.624Z,15.20
2019-04-23T20:38:18.975Z,15.20
2019-04-23T20:40:23.716Z,15.30
2019-04-23T20:42:49.738Z,15.20
2019-04-23T20:45:16.527Z,15.10
2019-04-23T20:47:50.330Z,15.10
2019-04-23T20:49:58.842Z,15.10
2019-04-23T20:52:33.995Z,15.10
2019-04-23T20:55:08.498Z,15.00
2019-04-23T21:00:08.919Z,14.90
2019-04-23T21:05:09.815Z,14.80
2019-04-23T21:07:52.601Z,14.90
2019-04-23T21:12:50.179Z,14.80
2019-04-23T21:17:35.591Z,14.80
2019-04-23T21:22:17.432Z,14.90
2019-04-23T21:27:32.585Z,14.80
2019-04-23T21:30:00.622Z,14.70
2019-04-23T21:32:27.123Z,14.70
2019-04-23T21:34:56.394Z,14.70
2019-04-23T21:37:23.846Z,14.70
2019-04-23T21:40:19.437Z,14.70
2019-04-23T21:42:21.154Z,14.50
2019-04-23T21:44:45.628Z,14.50
2019-04-23T21:47:09.090Z,14.40
2019-04-23T21:52:11.453Z,14.50
2019-04-23T21:54:39.540Z,14.40
2019-04-23T21:57:00.598Z,14.40
2019-04-23T21:59:35.240Z,14.30
2019-04-23T22:01:58.827Z,14.20
2019-04-23T22:04:44.958Z,14.20
2019-04-23T22:06:56.894Z,14.20
2019-04-23T22:09:31.447Z,14.20
2019-04-23T22:12:03.443Z,14.20
2019-04-23T22:16:57.581Z,14.10
2019-04-23T22:19:20.223Z,14.10
2019-04-23T22:21:50.924Z,14.00
2019-04-23T22:26:38.135Z,13.80
2019-04-23T22:29:44.711Z,13.70
2019-04-23T22:31:44.303Z,13.70
2019-04-23T22:34:16.774Z,13.70
2019-04-23T22:36:46.486Z,13.70
2019-04-23T22:39:09.765Z,13.70
2019-04-23T22:46:38.035Z,13.60
2019-04-23T22:49:09.294Z,13.50
2019-04-23T22:51:38.349Z,13.50
2019-04-23T22:54:00.128Z,13.50
2019-04-23T22:56:43.945Z,13.50
2019-04-23T22:59:01.502Z,13.60
2019-04-23T23:03:51.187Z,13.40
2019-04-23T23:06:26.083Z,13.30
2019-04-23T23:09:01.069Z,13.30
2019-04-23T23:11:13.978Z,13.30
2019-04-23T23:14:04.606Z,13.00
2019-04-23T23:16:08.516Z,13.10
2019-04-23T23:18:57.403Z,13.20
2019-04-23T23:21:05.365Z,13.10
2019-04-23T23:23:52.969Z,13.10
2019-04-23T23:28:35.189Z,13.10
2019-04-23T23:31:07.026Z,13.10
2019-04-23T23:33:30.429Z,12.90
2019-04-23T23:36:00.192Z,12.90
2019-04-23T23:38:33.367Z,12.90
2019-04-23T23:41:03.689Z,13.00
2019-04-23T23:43:25.813Z,13.10
2019-04-23T23:46:06.975Z,13.00
2019-04-23T23:50:54.634Z,12.80
2019-04-23T23:53:23.317Z,12.80
2019-04-23T23:55:49.291Z,12.70
2019-04-23T23:58:26.856Z,12.60
